Aérodrome :
LOGIN :

S'inscrire | Disclaimer

   EN    FR    IT 

 










Légende :    VFR   VFR Marginal   IFR   IFR Intensif   IFR Très Intensif
Visi : 
Plafond : 
>= 8 km
>= 3000ft
5 à 8 km
1000 à 3000 ft
1500m à 5 km
500 à 1000 ft
800 à 1500m
200 à 500 ft
< 800m
< 200 ft
Symboles :   Orages  Brouillard  Fortes neiges  Fortes précipitations  Vent > 20 kt
SIGMETs :   Divers  Orages  Givrage  Turbulence  Onde Orograph.  Cendres Volcan.






- Altitude de l'aérodrome : 614 ft
- Code IATA : CRL


EBCI - Charleroi

DERNIER METAR :
  • 232150Z 12003KT 090V160 0800 R24/1900N FG SCT001 BKN002 02/01 Q1026 TEMPO 1200 BR BKN003

METARs EXPIRÉS :
  • 232120Z 11004KT 080V180 0800 R24/1800D FG SCT001 BKN002 02/01 Q1026 TEMPO 1200 BR BKN003
  • 232050Z 08004KT 050V120 0600 R24/1700U FG SCT001 BKN002 02/01 Q1026 TEMPO 1500 BR BKN003
  • 232020Z 12004KT 060V160 0700 R24/1900N FG SCT001 BKN002 02/01 Q1026 TEMPO 1500 BR BKN003
  • 231950Z 09004KT 050V170 0600 R24/1800D FG SCT001 OVC002 02/01 Q1026 NOSIG
  • 231920Z 09005KT 0500 R24/1100N FG BKN001 OVC002 02/01 Q1026 NOSIG

TAF TAF EBCI
Valide du 23 à 18h jusqu'au 25 à 00h UTC


231710Z 2318/2424 VRB03KT 0800 FG BKN002
BECMG 2408/2410 4000 BR BKN009
BECMG 2410/2412 6000 NSW BKN014



MET'MAP, la Météo Aéronautique d'un coup d'oeil ! - Copyright ORBIFLY Décembre 2007 - Disclaimer

ORBIFLY MET'MAP TEAM :

Programmation & Développement : Alexandra Zaïnal
Sur une idée originale de : Baudouin d'Aumeries
Assistance à la programmation : Marc-Olivier Méhu
Soutien technique & logistique : Manuel Goepfert

Contact : metmap@orbifly.com




SOURCES & CREDITS :

   NOAA